sensor_id;sensor_type;location;lat;lon;timestamp;pressure;altitude;pressure_sealevel;temperature;humidity
15050;BME280;7622;42.724;23.250;2022-08-30T00:00:25;94861.28;;;20.26;100.00
15050;BME280;7622;42.724;23.250;2022-08-30T00:03:10;94862.88;;;20.27;100.00
15050;BME280;7622;42.724;23.250;2022-08-30T00:05:38;94866.56;;;20.26;100.00
15050;BME280;7622;42.724;23.250;2022-08-30T00:08:06;94869.97;;;20.20;100.00
15050;BME280;7622;42.724;23.250;2022-08-30T00:10:32;94862.41;;;20.03;100.00
15050;BME280;7622;42.724;23.250;2022-08-30T00:13:01;94856.78;;;19.79;100.00
15050;BME280;7622;42.724;23.250;2022-08-30T00:15:28;94802.09;;;19.46;100.00
15050;BME280;7622;42.724;23.250;2022-08-30T00:17:56;94855.03;;;19.92;100.00
15050;BME280;7622;42.724;23.250;2022-08-30T00:20:28;94852.25;;;20.00;100.00
15050;BME280;7622;42.724;23.250;2022-08-30T00:22:56;94835.97;;;19.90;100.00
15050;BME280;7622;42.724;23.250;2022-08-30T00:25:23;94861.56;;;19.96;100.00
15050;BME280;7622;42.724;23.250;2022-08-30T00:27:50;94858.31;;;19.94;100.00
15050;BME280;7622;42.724;23.250;2022-08-30T00:30:19;94857.94;;;20.04;100.00
15050;BME280;7622;42.724;23.250;2022-08-30T00:32:46;94851.84;;;19.97;100.00
15050;BME280;7622;42.724;23.250;2022-08-30T00:35:16;94847.25;;;19.78;100.00
15050;BME280;7622;42.724;23.250;2022-08-30T00:37:45;94856.88;;;19.57;100.00
15050;BME280;7622;42.724;23.250;2022-08-30T00:40:12;94857.00;;;19.77;100.00
15050;BME280;7622;42.724;23.250;2022-08-30T00:42:41;94859.66;;;19.77;100.00
15050;BME280;7622;42.724;23.250;2022-08-30T00:45:11;94860.19;;;19.66;100.00
15050;BME280;7622;42.724;23.250;2022-08-30T00:47:40;94862.63;;;19.67;100.00
15050;BME280;7622;42.724;23.250;2022-08-30T00:50:07;94859.97;;;19.61;100.00
15050;BME280;7622;42.724;23.250;2022-08-30T00:52:35;94859.78;;;19.62;100.00
15050;BME280;7622;42.724;23.250;2022-08-30T00:55:06;94858.47;;;19.52;100.00
15050;BME280;7622;42.724;23.250;2022-08-30T00:57:33;94858.75;;;19.36;100.00
15050;BME280;7622;42.724;23.250;2022-08-30T01:00:00;94857.13;;;19.35;100.00
15050;BME280;7622;42.724;23.250;2022-08-30T01:02:28;94859.72;;;19.56;100.00
15050;BME280;7622;42.724;23.250;2022-08-30T01:05:00;94860.06;;;19.46;100.00
15050;BME280;7622;42.724;23.250;2022-08-30T01:07:27;94862.19;;;19.64;100.00
15050;BME280;7622;42.724;23.250;2022-08-30T01:09:54;94836.38;;;19.25;100.00
15050;BME280;7622;42.724;23.250;2022-08-30T01:12:21;94854.84;;;19.53;100.00
15050;BME280;7622;42.724;23.250;2022-08-30T01:14:48;94855.84;;;19.52;100.00
15050;BME280;7622;42.724;23.250;2022-08-30T01:17:15;94859.22;;;19.46;100.00
15050;BME280;7622;42.724;23.250;2022-08-30T01:19:46;94856.88;;;19.29;100.00
15050;BME280;7622;42.724;23.250;2022-08-30T01:22:20;94859.31;;;19.59;100.00
15050;BME280;7622;42.724;23.250;2022-08-30T01:24:52;94853.59;;;19.49;100.00
15050;BME280;7622;42.724;23.250;2022-08-30T01:27:21;94860.69;;;19.48;100.00
15050;BME280;7622;42.724;23.250;2022-08-30T01:29:49;94837.81;;;19.55;100.00
15050;BME280;7622;42.724;23.250;2022-08-30T01:32:17;94855.94;;;19.44;100.00
15050;BME280;7622;42.724;23.250;2022-08-30T01:34:44;94854.13;;;19.16;100.00
15050;BME280;7622;42.724;23.250;2022-08-30T01:37:14;94854.41;;;19.21;100.00
15050;BME280;7622;42.724;23.250;2022-08-30T01:39:44;94860.84;;;19.19;100.00
15050;BME280;7622;42.724;23.250;2022-08-30T01:42:13;94853.94;;;19.18;100.00
15050;BME280;7622;42.724;23.250;2022-08-30T01:44:41;94856.59;;;19.18;100.00
15050;BME280;7622;42.724;23.250;2022-08-30T01:47:08;94842.50;;;19.04;100.00
15050;BME280;7622;42.724;23.250;2022-08-30T01:49:37;94838.50;;;19.08;100.00
15050;BME280;7622;42.724;23.250;2022-08-30T01:52:07;94843.41;;;19.18;100.00
15050;BME280;7622;42.724;23.250;2022-08-30T01:54:39;94837.63;;;19.29;100.00
15050;BME280;7622;42.724;23.250;2022-08-30T01:57:07;94839.25;;;19.30;100.00
15050;BME280;7622;42.724;23.250;2022-08-30T01:59:36;94833.97;;;19.30;100.00
15050;BME280;7622;42.724;23.250;2022-08-30T02:02:04;94836.91;;;19.42;100.00
15050;BME280;7622;42.724;23.250;2022-08-30T02:04:31;94834.88;;;19.44;100.00
15050;BME280;7622;42.724;23.250;2022-08-30T02:06:57;94833.94;;;19.23;100.00
15050;BME280;7622;42.724;23.250;2022-08-30T02:09:24;94827.88;;;19.29;100.00
15050;BME280;7622;42.724;23.250;2022-08-30T02:11:51;94833.28;;;19.43;100.00
15050;BME280;7622;42.724;23.250;2022-08-30T02:14:19;94780.91;;;18.99;100.00
15050;BME280;7622;42.724;23.250;2022-08-30T02:16:47;94831.16;;;19.32;100.00
15050;BME280;7622;42.724;23.250;2022-08-30T02:19:14;94836.81;;;19.28;100.00
15050;BME280;7622;42.724;23.250;2022-08-30T02:21:40;94835.78;;;19.29;100.00
15050;BME280;7622;42.724;23.250;2022-08-30T02:24:07;94832.63;;;19.41;100.00
15050;BME280;7622;42.724;23.250;2022-08-30T02:26:34;94823.25;;;19.32;100.00
15050;BME280;7622;42.724;23.250;2022-08-30T02:29:01;94835.66;;;19.38;100.00
15050;BME280;7622;42.724;23.250;2022-08-30T02:31:29;94827.88;;;19.29;100.00
15050;BME280;7622;42.724;23.250;2022-08-30T02:33:57;94836.38;;;19.25;100.00
15050;BME280;7622;42.724;23.250;2022-08-30T02:36:24;94833.78;;;19.04;100.00
15050;BME280;7622;42.724;23.250;2022-08-30T02:38:51;94838.00;;;18.98;100.00
15050;BME280;7622;42.724;23.250;2022-08-30T02:41:18;94829.34;;;19.04;100.00
15050;BME280;7622;42.724;23.250;2022-08-30T02:43:45;94837.88;;;19.06;100.00
15050;BME280;7622;42.724;23.250;2022-08-30T02:46:12;94828.06;;;18.94;100.00
15050;BME280;7622;42.724;23.250;2022-08-30T02:48:39;94835.72;;;18.95;100.00
15050;BME280;7622;42.724;23.250;2022-08-30T02:51:10;94834.50;;;18.91;100.00
15050;BME280;7622;42.724;23.250;2022-08-30T02:53:38;94832.38;;;19.01;100.00
15050;BME280;7622;42.724;23.250;2022-08-30T02:56:06;94821.25;;;19.06;100.00
15050;BME280;7622;42.724;23.250;2022-08-30T02:58:34;94823.16;;;18.91;100.00
15050;BME280;7622;42.724;23.250;2022-08-30T03:01:01;94824.72;;;18.85;100.00
15050;BME280;7622;42.724;23.250;2022-08-30T03:03:28;94764.34;;;18.34;100.00
15050;BME280;7622;42.724;23.250;2022-08-30T03:05:55;94824.91;;;18.83;100.00
15050;BME280;7622;42.724;23.250;2022-08-30T03:08:23;94828.25;;;18.71;100.00
15050;BME280;7622;42.724;23.250;2022-08-30T03:10:50;94825.94;;;18.46;100.00
15050;BME280;7622;42.724;23.250;2022-08-30T03:13:17;94824.22;;;18.32;100.00
15050;BME280;7622;42.724;23.250;2022-08-30T03:15:43;94825.81;;;18.33;100.00
15050;BME280;7622;42.724;23.250;2022-08-30T03:18:10;94834.34;;;18.35;100.00
15050;BME280;7622;42.724;23.250;2022-08-30T03:20:37;94824.41;;;18.31;100.00
15050;BME280;7622;42.724;23.250;2022-08-30T03:23:04;94828.91;;;18.37;100.00
15050;BME280;7622;42.724;23.250;2022-08-30T03:25:32;94827.47;;;18.34;100.00
15050;BME280;7622;42.724;23.250;2022-08-30T03:27:59;94832.97;;;18.18;100.00
15050;BME280;7622;42.724;23.250;2022-08-30T03:30:26;94824.75;;;18.28;100.00
15050;BME280;7622;42.724;23.250;2022-08-30T03:32:53;94825.06;;;18.39;100.00
15050;BME280;7622;42.724;23.250;2022-08-30T03:35:20;94834.88;;;18.45;100.00
15050;BME280;7622;42.724;23.250;2022-08-30T03:37:47;94834.88;;;18.45;100.00
15050;BME280;7622;42.724;23.250;2022-08-30T03:40:20;94838.03;;;18.41;100.00
15050;BME280;7622;42.724;23.250;2022-08-30T03:42:48;94811.19;;;18.24;100.00
15050;BME280;7622;42.724;23.250;2022-08-30T03:45:16;94840.00;;;18.32;100.00
15050;BME280;7622;42.724;23.250;2022-08-30T03:47:44;94831.72;;;18.35;100.00
15050;BME280;7622;42.724;23.250;2022-08-30T03:50:12;94829.84;;;18.29;100.00
15050;BME280;7622;42.724;23.250;2022-08-30T03:52:39;94832.72;;;18.34;100.00
15050;BME280;7622;42.724;23.250;2022-08-30T03:55:08;94831.91;;;18.55;100.00
15050;BME280;7622;42.724;23.250;2022-08-30T03:57:37;94835.75;;;18.53;100.00
15050;BME280;7622;42.724;23.250;2022-08-30T04:00:10;94835.69;;;18.67;100.00
15050;BME280;7622;42.724;23.250;2022-08-30T04:02:38;94832.47;;;18.65;100.00
15050;BME280;7622;42.724;23.250;2022-08-30T04:05:07;94817.59;;;18.58;100.00
15050;BME280;7622;42.724;23.250;2022-08-30T04:07:34;94828.47;;;18.55;100.00
15050;BME280;7622;42.724;23.250;2022-08-30T04:10:01;94837.66;;;18.80;100.00
15050;BME280;7622;42.724;23.250;2022-08-30T04:12:28;94819.06;;;18.88;100.00
15050;BME280;7622;42.724;23.250;2022-08-30T04:14:54;94832.16;;;19.03;100.00
15050;BME280;7622;42.724;23.250;2022-08-30T04:17:23;94832.38;;;19.01;100.00
15050;BME280;7622;42.724;23.250;2022-08-30T04:19:50;94831.63;;;18.86;100.00
15050;BME280;7622;42.724;23.250;2022-08-30T04:22:16;94841.41;;;18.92;100.00
15050;BME280;7622;42.724;23.250;2022-08-30T04:24:43;94855.19;;;18.94;100.00
15050;BME280;7622;42.724;23.250;2022-08-30T04:27:10;94855.56;;;18.91;100.00
15050;BME280;7622;42.724;23.250;2022-08-30T04:29:37;94850.53;;;18.96;100.00
15050;BME280;7622;42.724;23.250;2022-08-30T04:32:04;94855.72;;;19.11;100.00
15050;BME280;7622;42.724;23.250;2022-08-30T04:34:32;94854.00;;;19.24;100.00
15050;BME280;7622;42.724;23.250;2022-08-30T04:36:59;94862.31;;;19.21;100.00
15050;BME280;7622;42.724;23.250;2022-08-30T04:39:25;94862.53;;;19.26;100.00
15050;BME280;7622;42.724;23.250;2022-08-30T04:41:52;94867.25;;;19.38;100.00
15050;BME280;7622;42.724;23.250;2022-08-30T04:44:20;94867.44;;;19.36;100.00
15050;BME280;7622;42.724;23.250;2022-08-30T04:46:47;94861.09;;;19.52;100.00
15050;BME280;7622;42.724;23.250;2022-08-30T04:49:14;94866.78;;;19.49;100.00
15050;BME280;7622;42.724;23.250;2022-08-30T04:51:42;94863.75;;;19.52;100.00
15050;BME280;7622;42.724;23.250;2022-08-30T04:54:09;94859.00;;;19.41;100.00
15050;BME280;7622;42.724;23.250;2022-08-30T04:56:36;94863.31;;;19.48;100.00
15050;BME280;7622;42.724;23.250;2022-08-30T04:59:03;94844.50;;;19.58;100.00
15050;BME280;7622;42.724;23.250;2022-08-30T05:01:31;94869.41;;;19.83;100.00
15050;BME280;7622;42.724;23.250;2022-08-30T05:03:58;94877.72;;;19.87;100.00
15050;BME280;7622;42.724;23.250;2022-08-30T05:06:27;94878.22;;;20.03;100.00
15050;BME280;7622;42.724;23.250;2022-08-30T05:08:57;94879.22;;;19.96;100.00
15050;BME280;7622;42.724;23.250;2022-08-30T05:11:25;94881.53;;;20.12;100.00
15050;BME280;7622;42.724;23.250;2022-08-30T05:13:53;94884.53;;;20.09;100.00
15050;BME280;7622;42.724;23.250;2022-08-30T05:16:20;94883.91;;;20.07;100.00
15050;BME280;7622;42.724;23.250;2022-08-30T05:18:50;94884.00;;;20.27;100.00
15050;BME280;7622;42.724;23.250;2022-08-30T05:21:21;94893.50;;;20.15;100.00
15050;BME280;7622;42.724;23.250;2022-08-30T05:23:48;94897.00;;;20.28;100.00
15050;BME280;7622;42.724;23.250;2022-08-30T05:26:19;94894.97;;;20.24;100.00
15050;BME280;7622;42.724;23.250;2022-08-30T05:28:47;94896.97;;;20.22;100.00
15050;BME280;7622;42.724;23.250;2022-08-30T05:31:17;94902.03;;;20.17;100.00
15050;BME280;7622;42.724;23.250;2022-08-30T05:33:44;94894.16;;;20.30;100.00
15050;BME280;7622;42.724;23.250;2022-08-30T05:36:12;94903.38;;;20.47;100.00
15050;BME280;7622;42.724;23.250;2022-08-30T05:38:40;94895.28;;;20.49;100.00
15050;BME280;7622;42.724;23.250;2022-08-30T05:41:07;94896.03;;;20.36;100.00
15050;BME280;7622;42.724;23.250;2022-08-30T05:43:36;94894.97;;;20.24;100.00
15050;BME280;7622;42.724;23.250;2022-08-30T05:46:05;94887.44;;;20.21;100.00
15050;BME280;7622;42.724;23.250;2022-08-30T05:48:32;94900.34;;;20.43;100.00
15050;BME280;7622;42.724;23.250;2022-08-30T05:51:01;94902.69;;;20.25;100.00
15050;BME280;7622;42.724;23.250;2022-08-30T05:53:28;94908.78;;;20.26;100.00
15050;BME280;7622;42.724;23.250;2022-08-30T05:55:55;94903.97;;;20.36;100.00
15050;BME280;7622;42.724;23.250;2022-08-30T05:58:22;94901.72;;;20.33;100.00
15050;BME280;7622;42.724;23.250;2022-08-30T06:00:50;94905.47;;;20.17;100.00
15050;BME280;7622;42.724;23.250;2022-08-30T06:03:17;94859.50;;;19.92;100.00
15050;BME280;7622;42.724;23.250;2022-08-30T06:05:44;94898.44;;;20.31;100.00
15050;BME280;7622;42.724;23.250;2022-08-30T06:08:10;94904.16;;;20.34;100.00
15050;BME280;7622;42.724;23.250;2022-08-30T06:10:37;94905.63;;;20.43;100.00
15050;BME280;7622;42.724;23.250;2022-08-30T06:13:04;94908.09;;;20.52;100.00
15050;BME280;7622;42.724;23.250;2022-08-30T06:15:31;94907.28;;;20.51;100.00
15050;BME280;7622;42.724;23.250;2022-08-30T06:17:59;94906.06;;;20.54;100.00
15050;BME280;7622;42.724;23.250;2022-08-30T06:20:26;94910.53;;;20.53;100.00
15050;BME280;7622;42.724;23.250;2022-08-30T06:22:53;94918.91;;;20.29;100.00
15050;BME280;7622;42.724;23.250;2022-08-30T06:25:19;94912.38;;;20.12;100.00
15050;BME280;7622;42.724;23.250;2022-08-30T06:27:46;94914.94;;;20.33;100.00
15050;BME280;7622;42.724;23.250;2022-08-30T06:30:13;94864.41;;;20.01;100.00
15050;BME280;7622;42.724;23.250;2022-08-30T06:32:40;94921.31;;;20.17;100.00
15050;BME280;7622;42.724;23.250;2022-08-30T06:35:09;94926.06;;;19.94;100.00
15050;BME280;7622;42.724;23.250;2022-08-30T06:37:36;94909.81;;;19.90;100.00
15050;BME280;7622;42.724;23.250;2022-08-30T06:40:04;94923.91;;;20.11;100.00
15050;BME280;7622;42.724;23.250;2022-08-30T06:42:32;94926.59;;;20.17;100.00
15050;BME280;7622;42.724;23.250;2022-08-30T06:45:00;94929.38;;;20.09;100.00
15050;BME280;7622;42.724;23.250;2022-08-30T06:47:27;94929.63;;;20.21;100.00
15050;BME280;7622;42.724;23.250;2022-08-30T06:49:54;94928.16;;;20.05;100.00
15050;BME280;7622;42.724;23.250;2022-08-30T06:52:22;94929.66;;;19.86;100.00
15050;BME280;7622;42.724;23.250;2022-08-30T06:54:49;94937.09;;;20.11;100.00
15050;BME280;7622;42.724;23.250;2022-08-30T06:57:16;94941.94;;;20.07;100.00
15050;BME280;7622;42.724;23.250;2022-08-30T06:59:42;94937.97;;;20.18;100.00
15050;BME280;7622;42.724;23.250;2022-08-30T07:02:09;94938.69;;;20.33;100.00
15050;BME280;7622;42.724;23.250;2022-08-30T07:04:37;94939.75;;;20.45;100.00
15050;BME280;7622;42.724;23.250;2022-08-30T07:07:09;94947.06;;;20.50;100.00
15050;BME280;7622;42.724;23.250;2022-08-30T07:09:39;94944.66;;;20.61;100.00
15050;BME280;7622;42.724;23.250;2022-08-30T07:12:08;94945.94;;;20.78;100.00
15050;BME280;7622;42.724;23.250;2022-08-30T07:14:36;94941.69;;;20.91;100.00
15050;BME280;7622;42.724;23.250;2022-08-30T07:17:03;94943.69;;;20.75;100.00
15050;BME280;7622;42.724;23.250;2022-08-30T07:19:51;94946.41;;;21.02;100.00
15050;BME280;7622;42.724;23.250;2022-08-30T07:22:16;94936.44;;;21.04;100.00
15050;BME280;7622;42.724;23.250;2022-08-30T07:24:45;94947.47;;;21.20;100.00
15050;BME280;7622;42.724;23.250;2022-08-30T07:27:12;94928.56;;;21.30;100.00
15050;BME280;7622;42.724;23.250;2022-08-30T07:29:39;94953.19;;;21.50;100.00
15050;BME280;7622;42.724;23.250;2022-08-30T07:32:06;94922.25;;;21.44;100.00
15050;BME280;7622;42.724;23.250;2022-08-30T07:34:33;94949.75;;;21.56;100.00
15050;BME280;7622;42.724;23.250;2022-08-30T07:37:00;94950.94;;;21.60;100.00
15050;BME280;7622;42.724;23.250;2022-08-30T07:39:26;94955.03;;;21.56;100.00
15050;BME280;7622;42.724;23.250;2022-08-30T07:41:54;94942.41;;;21.45;100.00
15050;BME280;7622;42.724;23.250;2022-08-30T07:44:21;94940.75;;;21.31;100.00
15050;BME280;7622;42.724;23.250;2022-08-30T07:46:48;94936.50;;;21.23;100.00
15050;BME280;7622;42.724;23.250;2022-08-30T07:49:15;94936.69;;;21.15;100.00
15050;BME280;7622;42.724;23.250;2022-08-30T07:51:42;94938.75;;;21.33;100.00
15050;BME280;7622;42.724;23.250;2022-08-30T07:54:09;94933.44;;;21.59;100.00
15050;BME280;7622;42.724;23.250;2022-08-30T07:56:36;94939.13;;;21.83;100.00
15050;BME280;7622;42.724;23.250;2022-08-30T07:59:04;94942.41;;;21.85;100.00
15050;BME280;7622;42.724;23.250;2022-08-30T08:01:30;94948.50;;;22.05;100.00
15050;BME280;7622;42.724;23.250;2022-08-30T08:03:57;94946.81;;;22.24;100.00
15050;BME280;7622;42.724;23.250;2022-08-30T08:06:24;94951.25;;;22.36;100.00
15050;BME280;7622;42.724;23.250;2022-08-30T08:08:52;94960.19;;;22.42;100.00
15050;BME280;7622;42.724;23.250;2022-08-30T08:11:23;94960.22;;;22.35;100.00
15050;BME280;7622;42.724;23.250;2022-08-30T08:13:51;94951.31;;;22.10;100.00
15050;BME280;7622;42.724;23.250;2022-08-30T08:16:21;94953.72;;;22.31;100.00
15050;BME280;7622;42.724;23.250;2022-08-30T08:18:48;94956.44;;;22.63;100.00
15050;BME280;7622;42.724;23.250;2022-08-30T08:21:14;94956.78;;;22.86;100.00
15050;BME280;7622;42.724;23.250;2022-08-30T08:23:41;94950.31;;;23.13;100.00
15050;BME280;7622;42.724;23.250;2022-08-30T08:26:08;94952.34;;;23.11;100.00
15050;BME280;7622;42.724;23.250;2022-08-30T08:28:35;94955.97;;;22.86;100.00
15050;BME280;7622;42.724;23.250;2022-08-30T08:31:02;94942.44;;;23.00;100.00
15050;BME280;7622;42.724;23.250;2022-08-30T08:33:30;94956.41;;;22.69;100.00
15050;BME280;7622;42.724;23.250;2022-08-30T08:35:56;94954.38;;;22.78;100.00
15050;BME280;7622;42.724;23.250;2022-08-30T08:38:23;94960.47;;;22.72;100.00
15050;BME280;7622;42.724;23.250;2022-08-30T08:40:58;94961.50;;;23.15;100.00
15050;BME280;7622;42.724;23.250;2022-08-30T08:43:26;94962.50;;;23.52;100.00
15050;BME280;7622;42.724;23.250;2022-08-30T08:45:55;94961.34;;;23.42;100.00
15050;BME280;7622;42.724;23.250;2022-08-30T08:48:32;94961.69;;;23.52;100.00
15050;BME280;7622;42.724;23.250;2022-08-30T08:51:01;94966.50;;;23.62;100.00
15050;BME280;7622;42.724;23.250;2022-08-30T08:53:50;94963.34;;;23.46;100.00
15050;BME280;7622;42.724;23.250;2022-08-30T08:56:19;94961.75;;;23.39;100.00
15050;BME280;7622;42.724;23.250;2022-08-30T08:58:49;94953.22;;;23.37;100.00
15050;BME280;7622;42.724;23.250;2022-08-30T09:01:20;94957.19;;;23.21;100.00
15050;BME280;7622;42.724;23.250;2022-08-30T09:03:48;94957.66;;;23.11;100.00
15050;BME280;7622;42.724;23.250;2022-08-30T09:06:35;94963.16;;;23.10;100.00
15050;BME280;7622;42.724;23.250;2022-08-30T09:09:04;94959.59;;;23.29;100.00
15050;BME280;7622;42.724;23.250;2022-08-30T09:11:33;94946.03;;;23.37;100.00
15050;BME280;7622;42.724;23.250;2022-08-30T09:14:01;94950.78;;;23.35;100.00
15050;BME280;7622;42.724;23.250;2022-08-30T09:16:48;94946.63;;;23.14;100.00
15050;BME280;7622;42.724;23.250;2022-08-30T09:19:33;94953.72;;;23.21;100.00
15050;BME280;7622;42.724;23.250;2022-08-30T09:22:05;94952.78;;;23.40;100.00
15050;BME280;7622;42.724;23.250;2022-08-30T09:24:40;94955.22;;;23.41;100.00
15050;BME280;7622;42.724;23.250;2022-08-30T09:27:22;94952.63;;;23.35;100.00
15050;BME280;7622;42.724;23.250;2022-08-30T09:29:52;94942.81;;;23.35;100.00
15050;BME280;7622;42.724;23.250;2022-08-30T09:32:28;94940.38;;;23.34;100.00
15050;BME280;7622;42.724;23.250;2022-08-30T09:34:57;94945.56;;;23.53;100.00
15050;BME280;7622;42.724;23.250;2022-08-30T09:37:27;94952.63;;;23.35;100.00
15050;BME280;7622;42.724;23.250;2022-08-30T09:39:55;94939.75;;;23.07;100.00
15050;BME280;7622;42.724;23.250;2022-08-30T09:42:24;94942.88;;;22.91;100.00
15050;BME280;7622;42.724;23.250;2022-08-30T09:44:52;94943.28;;;22.94;100.00
15050;BME280;7622;42.724;23.250;2022-08-30T09:47:35;94941.75;;;22.80;100.00
15050;BME280;7622;42.724;23.250;2022-08-30T09:50:07;94937.28;;;22.74;100.00
15050;BME280;7622;42.724;23.250;2022-08-30T09:52:44;94936.84;;;22.70;100.00
15050;BME280;7622;42.724;23.250;2022-08-30T09:55:26;94926.13;;;22.59;100.00
15050;BME280;7622;42.724;23.250;2022-08-30T09:58:02;94938.50;;;22.65;100.00
15050;BME280;7622;42.724;23.250;2022-08-30T10:00:37;94936.88;;;22.64;100.00
15050;BME280;7622;42.724;23.250;2022-08-30T10:03:21;94933.00;;;22.66;100.00
15050;BME280;7622;42.724;23.250;2022-08-30T10:05:57;94935.16;;;22.89;100.00
15050;BME280;7622;42.724;23.250;2022-08-30T10:08:37;94932.31;;;23.22;100.00
15050;BME280;7622;42.724;23.250;2022-08-30T10:11:11;94937.13;;;23.32;100.00
15050;BME280;7622;42.724;23.250;2022-08-30T10:14:06;94931.25;;;23.30;100.00
15050;BME280;7622;42.724;23.250;2022-08-30T10:16:44;94930.59;;;23.34;100.00
15050;BME280;7622;42.724;23.250;2022-08-30T10:19:25;94931.72;;;23.45;100.00
15050;BME280;7622;42.724;23.250;2022-08-30T10:22:00;94928.78;;;23.60;100.00
15050;BME280;7622;42.724;23.250;2022-08-30T10:24:32;94904.69;;;23.61;100.00
15050;BME280;7622;42.724;23.250;2022-08-30T10:27:04;94914.56;;;23.72;100.00
15050;BME280;7622;42.724;23.250;2022-08-30T10:29:40;94919.59;;;23.62;100.00
15050;BME280;7622;42.724;23.250;2022-08-30T10:32:13;94918.38;;;23.58;100.00
15050;BME280;7622;42.724;23.250;2022-08-30T10:34:48;94914.56;;;23.72;100.00
15050;BME280;7622;42.724;23.250;2022-08-30T10:37:23;94917.28;;;23.90;100.00
15050;BME280;7622;42.724;23.250;2022-08-30T10:39:55;94910.06;;;24.16;100.00
15050;BME280;7622;42.724;23.250;2022-08-30T10:42:45;94910.78;;;24.48;100.00
15050;BME280;7622;42.724;23.250;2022-08-30T10:45:14;94911.44;;;24.25;100.00
15050;BME280;7622;42.724;23.250;2022-08-30T10:47:45;94908.91;;;24.48;100.00
15050;BME280;7622;42.724;23.250;2022-08-30T10:50:19;94909.59;;;24.25;100.00
15050;BME280;7622;42.724;23.250;2022-08-30T10:52:55;94907.38;;;24.70;100.00
15050;BME280;7622;42.724;23.250;2022-08-30T10:55:25;94908.41;;;24.88;100.00
15050;BME280;7622;42.724;23.250;2022-08-30T10:57:58;94909.44;;;24.87;100.00
15050;BME280;7622;42.724;23.250;2022-08-30T11:00:28;94901.75;;;24.97;100.00
15050;BME280;7622;42.724;23.250;2022-08-30T11:06:17;94891.31;;;25.25;100.00
15050;BME280;7622;42.724;23.250;2022-08-30T11:09:06;94898.28;;;25.49;100.00
15050;BME280;7622;42.724;23.250;2022-08-30T11:11:43;94886.63;;;25.74;100.00
15050;BME280;7622;42.724;23.250;2022-08-30T11:14:19;94884.22;;;25.84;100.00
15050;BME280;7622;42.724;23.250;2022-08-30T11:16:48;94886.72;;;26.14;100.00
15050;BME280;7622;42.724;23.250;2022-08-30T11:19:19;94878.75;;;26.25;100.00
15050;BME280;7622;42.724;23.250;2022-08-30T11:21:47;94884.13;;;26.54;100.00
15050;BME280;7622;42.724;23.250;2022-08-30T11:24:17;94879.25;;;26.91;100.00
15050;BME280;7622;42.724;23.250;2022-08-30T11:27:03;94880.34;;;27.07;100.00
15050;BME280;7622;42.724;23.250;2022-08-30T11:29:36;94872.28;;;27.52;100.00
15050;BME280;7622;42.724;23.250;2022-08-30T11:32:55;94882.16;;;27.68;100.00
15050;BME280;7622;42.724;23.250;2022-08-30T11:35:34;94882.03;;;27.58;100.00
15050;BME280;7622;42.724;23.250;2022-08-30T11:38:10;94880.06;;;27.53;100.00
15050;BME280;7622;42.724;23.250;2022-08-30T11:40:50;94875.03;;;27.90;100.00
15050;BME280;7622;42.724;23.250;2022-08-30T11:43:49;94870.84;;;27.61;100.00
15050;BME280;7622;42.724;23.250;2022-08-30T11:46:18;94876.50;;;27.31;100.00
15050;BME280;7622;42.724;23.250;2022-08-30T11:48:50;94873.22;;;26.95;100.00
15050;BME280;7622;42.724;23.250;2022-08-30T11:51:44;94871.94;;;27.15;100.00
15050;BME280;7622;42.724;23.250;2022-08-30T11:54:27;94866.91;;;27.01;100.00
15050;BME280;7622;42.724;23.250;2022-08-30T11:57:05;94854.41;;;27.19;100.00
15050;BME280;7622;42.724;23.250;2022-08-30T11:59:44;94855.81;;;27.38;100.00
15050;BME280;7622;42.724;23.250;2022-08-30T12:02:38;94855.59;;;27.95;100.00
15050;BME280;7622;42.724;23.250;2022-08-30T12:08:44;94843.28;;;28.32;100.00
15050;BME280;7622;42.724;23.250;2022-08-30T12:14:44;94829.41;;;28.35;100.00
15050;BME280;7622;42.724;23.250;2022-08-30T12:17:32;94831.22;;;28.30;100.00
15050;BME280;7622;42.724;23.250;2022-08-30T12:20:40;94828.75;;;28.23;100.00
15050;BME280;7622;42.724;23.250;2022-08-30T12:23:29;94817.91;;;28.13;100.00
15050;BME280;7622;42.724;23.250;2022-08-30T12:26:16;94819.38;;;28.04;100.00
15050;BME280;7622;42.724;23.250;2022-08-30T12:28:44;94812.91;;;27.78;100.00
15050;BME280;7622;42.724;23.250;2022-08-30T12:31:17;94817.19;;;28.01;100.00
15050;BME280;7622;42.724;23.250;2022-08-30T12:33:47;94813.91;;;27.94;100.00
15050;BME280;7622;42.724;23.250;2022-08-30T12:36:29;94808.66;;;27.99;100.00
15050;BME280;7622;42.724;23.250;2022-08-30T12:39:04;94801.25;;;27.84;100.00
15050;BME280;7622;42.724;23.250;2022-08-30T12:41:31;94811.13;;;28.05;100.00
15050;BME280;7622;42.724;23.250;2022-08-30T12:43:58;94800.69;;;28.04;100.00
15050;BME280;7622;42.724;23.250;2022-08-30T12:46:26;94804.88;;;28.16;100.00
15050;BME280;7622;42.724;23.250;2022-08-30T12:48:54;94807.50;;;27.95;100.00
15050;BME280;7622;42.724;23.250;2022-08-30T12:51:34;94797.25;;;27.65;100.00
15050;BME280;7622;42.724;23.250;2022-08-30T12:54:12;94787.28;;;27.60;100.00
15050;BME280;7622;42.724;23.250;2022-08-30T12:56:48;94784.75;;;27.70;100.00
15050;BME280;7622;42.724;23.250;2022-08-30T12:59:43;94791.28;;;28.01;100.00
15050;BME280;7622;42.724;23.250;2022-08-30T13:02:14;94789.25;;;27.87;100.00
15050;BME280;7622;42.724;23.250;2022-08-30T13:04:42;94792.34;;;27.78;100.00
15050;BME280;7622;42.724;23.250;2022-08-30T13:07:23;94769.41;;;27.61;100.00
15050;BME280;7622;42.724;23.250;2022-08-30T13:10:00;94797.59;;;27.73;100.00
15050;BME280;7622;42.724;23.250;2022-08-30T13:12:28;94790.72;;;27.77;100.00
15050;BME280;7622;42.724;23.250;2022-08-30T13:15:09;94791.06;;;28.03;100.00
15050;BME280;7622;42.724;23.250;2022-08-30T13:17:38;94791.19;;;28.13;100.00